sensor_id;sensor_type;location;lat;lon;timestamp;pressure;altitude;pressure_sealevel;temperature;humidity
64610;BME280;51019;46.090;6.350;2024-03-29T00:01:09;61291.81;;;10.46;55.67
64610;BME280;51019;46.090;6.350;2024-03-29T00:03:35;61375.47;;;11.25;52.42
64610;BME280;51019;46.090;6.350;2024-03-29T00:06:01;61356.13;;;11.07;56.03
64610;BME280;51019;46.090;6.350;2024-03-29T00:08:27;61369.56;;;11.19;56.40
64610;BME280;51019;46.090;6.350;2024-03-29T00:10:53;61361.50;;;11.12;57.61
64610;BME280;51019;46.090;6.350;2024-03-29T00:13:21;61319.16;;;10.72;63.18
64610;BME280;51019;46.090;6.350;2024-03-29T00:15:47;61272.50;;;10.28;68.03
64610;BME280;51019;46.090;6.350;2024-03-29T00:18:13;61326.66;;;10.79;63.52
64610;BME280;51019;46.090;6.350;2024-03-29T00:20:39;61318.63;;;10.71;64.75
64610;BME280;51019;46.090;6.350;2024-03-29T00:23:05;61334.88;;;10.91;59.96
64610;BME280;51019;46.090;6.350;2024-03-29T00:25:31;61338.53;;;10.93;56.45
64610;BME280;51019;46.090;6.350;2024-03-29T00:27:57;61344.97;;;10.99;56.79
64610;BME280;51019;46.090;6.350;2024-03-29T00:30:25;61339.97;;;10.89;58.96
64610;BME280;51019;46.090;6.350;2024-03-29T00:32:51;61329.34;;;10.81;59.72
64610;BME280;51019;46.090;6.350;2024-03-29T00:35:17;61325.66;;;10.80;57.38
64610;BME280;51019;46.090;6.350;2024-03-29T00:37:43;61354.53;;;11.05;57.92
64610;BME280;51019;46.090;6.350;2024-03-29T00:40:10;61359.91;;;11.10;49.90
64610;BME280;51019;46.090;6.350;2024-03-29T00:42:36;61464.56;;;12.09;47.44
64610;BME280;51019;46.090;6.350;2024-03-29T00:45:02;61459.19;;;12.04;48.68
64610;BME280;51019;46.090;6.350;2024-03-29T00:47:31;61428.03;;;11.75;50.69
64610;BME280;51019;46.090;6.350;2024-03-29T00:49:58;61336.94;;;10.91;59.99
64610;BME280;51019;46.090;6.350;2024-03-29T00:52:24;61328.88;;;10.83;57.47
64610;BME280;51019;46.090;6.350;2024-03-29T00:54:50;61353.00;;;11.06;59.10
64610;BME280;51019;46.090;6.350;2024-03-29T00:57:16;61294.03;;;10.50;60.69
64610;BME280;51019;46.090;6.350;2024-03-29T00:59:42;61311.00;;;10.62;58.19
64610;BME280;51019;46.090;6.350;2024-03-29T01:02:08;61336.38;;;10.90;56.34
64610;BME280;51019;46.090;6.350;2024-03-29T01:04:36;61417.94;;;11.68;50.48
64610;BME280;51019;46.090;6.350;2024-03-29T01:07:02;61370.53;;;11.18;49.78
64610;BME280;51019;46.090;6.350;2024-03-29T01:09:28;61411.50;;;11.61;53.04
64610;BME280;51019;46.090;6.350;2024-03-29T01:11:54;61377.06;;;11.26;52.69
64610;BME280;51019;46.090;6.350;2024-03-29T01:14:20;61356.69;;;11.07;56.28
64610;BME280;51019;46.090;6.350;2024-03-29T01:16:46;61319.22;;;10.74;54.31
64610;BME280;51019;46.090;6.350;2024-03-29T01:19:12;61332.53;;;10.84;53.89
64610;BME280;51019;46.090;6.350;2024-03-29T01:21:39;61269.84;;;10.25;58.58
64610;BME280;51019;46.090;6.350;2024-03-29T01:24:05;61321.28;;;10.74;55.58
64610;BME280;51019;46.090;6.350;2024-03-29T01:26:31;61376.00;;;11.25;51.76
64610;BME280;51019;46.090;6.350;2024-03-29T01:28:57;61338.00;;;10.92;52.97
64610;BME280;51019;46.090;6.350;2024-03-29T01:31:23;61291.34;;;10.48;54.21
64610;BME280;51019;46.090;6.350;2024-03-29T01:33:50;61368.56;;;11.21;54.31
64610;BME280;51019;46.090;6.350;2024-03-29T01:36:16;61303.16;;;10.59;60.96
64610;BME280;51019;46.090;6.350;2024-03-29T01:38:44;61285.91;;;10.40;66.25
64610;BME280;51019;46.090;6.350;2024-03-29T01:41:10;61243.56;;;10.00;70.48
64610;BME280;51019;46.090;6.350;2024-03-29T01:43:36;61264.47;;;10.20;67.58
64610;BME280;51019;46.090;6.350;2024-03-29T01:46:03;61216.13;;;9.72;69.59
64610;BME280;51019;46.090;6.350;2024-03-29T01:48:33;61197.56;;;9.59;62.76
64610;BME280;51019;46.090;6.350;2024-03-29T01:51:01;61262.22;;;10.15;60.44
64610;BME280;51019;46.090;6.350;2024-03-29T01:53:29;61253.19;;;10.09;65.20
64610;BME280;51019;46.090;6.350;2024-03-29T01:55:59;61270.38;;;10.26;61.24
64610;BME280;51019;46.090;6.350;2024-03-29T01:58:27;61313.78;;;10.67;57.06
64610;BME280;51019;46.090;6.350;2024-03-29T02:00:57;61325.66;;;10.80;59.20
64610;BME280;51019;46.090;6.350;2024-03-29T02:03:25;61363.03;;;11.11;56.37
64610;BME280;51019;46.090;6.350;2024-03-29T02:05:53;61320.28;;;10.75;55.64
64610;BME280;51019;46.090;6.350;2024-03-29T02:08:23;61384.66;;;11.36;50.75
64610;BME280;51019;46.090;6.350;2024-03-29T02:10:50;61415.16;;;11.62;49.27
64610;BME280;51019;46.090;6.350;2024-03-29T02:13:19;61441.47;;;11.87;49.65
64610;BME280;51019;46.090;6.350;2024-03-29T02:15:45;61436.66;;;11.83;50.06
64610;BME280;51019;46.090;6.350;2024-03-29T02:18:12;61409.34;;;11.59;49.43
64610;BME280;51019;46.090;6.350;2024-03-29T02:20:39;61419.00;;;11.69;47.88
64610;BME280;51019;46.090;6.350;2024-03-29T02:23:14;61420.97;;;11.65;49.49
64610;BME280;51019;46.090;6.350;2024-03-29T02:25:44;61484.50;;;12.30;48.13
64610;BME280;51019;46.090;6.350;2024-03-29T02:28:11;61453.81;;;11.99;48.57
64610;BME280;51019;46.090;6.350;2024-03-29T02:30:39;61467.78;;;12.12;50.06
64610;BME280;51019;46.090;6.350;2024-03-29T02:33:06;61441.56;;;11.90;49.83
64610;BME280;51019;46.090;6.350;2024-03-29T02:35:33;61446.94;;;11.95;50.83
64610;BME280;51019;46.090;6.350;2024-03-29T02:38:00;61427.06;;;11.76;50.22
64610;BME280;51019;46.090;6.350;2024-03-29T02:40:28;61456.59;;;12.04;48.49
64610;BME280;51019;46.090;6.350;2024-03-29T02:42:57;61434.06;;;11.83;49.76
64610;BME280;51019;46.090;6.350;2024-03-29T02:45:24;61475.78;;;12.17;47.74
64610;BME280;51019;46.090;6.350;2024-03-29T02:47:51;61447.47;;;11.95;47.23
64610;BME280;51019;46.090;6.350;2024-03-29T02:50:17;61474.31;;;12.21;48.15
64610;BME280;51019;46.090;6.350;2024-03-29T02:52:44;61491.41;;;12.34;48.25
64610;BME280;51019;46.090;6.350;2024-03-29T02:55:10;61508.13;;;12.53;50.20
64610;BME280;51019;46.090;6.350;2024-03-29T02:57:37;61465.63;;;12.10;56.98
64610;BME280;51019;46.090;6.350;2024-03-29T03:00:07;61435.13;;;11.84;58.22
64610;BME280;51019;46.090;6.350;2024-03-29T03:02:37;61348.63;;;11.00;61.78
64610;BME280;51019;46.090;6.350;2024-03-29T03:05:04;61427.69;;;11.79;60.74
64610;BME280;51019;46.090;6.350;2024-03-29T03:07:32;61436.13;;;11.82;62.49
64610;BME280;51019;46.090;6.350;2024-03-29T03:10:16;61369.56;;;11.19;69.43
64610;BME280;51019;46.090;6.350;2024-03-29T03:13:00;61349.72;;;11.01;65.54
64610;BME280;51019;46.090;6.350;2024-03-29T03:15:29;61396.47;;;11.47;55.81
64610;BME280;51019;46.090;6.350;2024-03-29T03:17:57;61414.16;;;11.64;60.12
64610;BME280;51019;46.090;6.350;2024-03-29T03:20:24;61403.97;;;11.54;58.84
64610;BME280;51019;46.090;6.350;2024-03-29T03:22:53;61388.88;;;11.38;60.85
64610;BME280;51019;46.090;6.350;2024-03-29T03:25:21;61391.53;;;11.40;58.09
64610;BME280;51019;46.090;6.350;2024-03-29T03:27:47;61416.75;;;11.64;58.13
64610;BME280;51019;46.090;6.350;2024-03-29T03:30:15;61418.84;;;11.63;55.97
64610;BME280;51019;46.090;6.350;2024-03-29T03:32:43;61354.06;;;11.07;57.23
64610;BME280;51019;46.090;6.350;2024-03-29T03:35:11;61367.94;;;11.18;57.16
64610;BME280;51019;46.090;6.350;2024-03-29T03:37:37;61408.81;;;11.59;56.34
64610;BME280;51019;46.090;6.350;2024-03-29T03:40:05;61419.00;;;11.69;53.86
64610;BME280;51019;46.090;6.350;2024-03-29T03:42:32;61457.06;;;12.02;52.93
64610;BME280;51019;46.090;6.350;2024-03-29T03:44:59;61445.31;;;11.93;51.26
64610;BME280;51019;46.090;6.350;2024-03-29T03:47:28;61474.78;;;12.19;52.68
64610;BME280;51019;46.090;6.350;2024-03-29T03:49:57;61482.81;;;12.26;51.21
64610;BME280;51019;46.090;6.350;2024-03-29T03:52:23;61498.47;;;12.44;53.49
64610;BME280;51019;46.090;6.350;2024-03-29T03:54:50;61470.47;;;12.15;53.93
64610;BME280;51019;46.090;6.350;2024-03-29T03:57:16;61408.81;;;11.59;58.87
64610;BME280;51019;46.090;6.350;2024-03-29T03:59:43;61467.78;;;12.12;61.61
64610;BME280;51019;46.090;6.350;2024-03-29T04:02:09;61392.09;;;11.41;64.43
64610;BME280;51019;46.090;6.350;2024-03-29T04:04:36;61410.88;;;11.58;59.14
64610;BME280;51019;46.090;6.350;2024-03-29T04:07:04;61373.31;;;11.23;65.02
64610;BME280;51019;46.090;6.350;2024-03-29T04:09:32;61439.88;;;11.86;62.87
64610;BME280;51019;46.090;6.350;2024-03-29T04:11:58;61304.69;;;10.58;68.24
64610;BME280;51019;46.090;6.350;2024-03-29T04:14:25;61333.09;;;10.85;60.03
64610;BME280;51019;46.090;6.350;2024-03-29T04:16:51;61399.06;;;11.47;61.85
64610;BME280;51019;46.090;6.350;2024-03-29T04:19:18;61362.69;;;11.15;63.33
64610;BME280;51019;46.090;6.350;2024-03-29T04:21:44;61382.50;;;11.34;65.03
64610;BME280;51019;46.090;6.350;2024-03-29T04:24:13;61379.28;;;11.31;64.76
64610;BME280;51019;46.090;6.350;2024-03-29T04:26:39;61348.72;;;11.02;67.18
64610;BME280;51019;46.090;6.350;2024-03-29T04:29:06;61349.72;;;11.01;63.95
64610;BME280;51019;46.090;6.350;2024-03-29T04:31:32;61454.91;;;12.00;61.36
64610;BME280;51019;46.090;6.350;2024-03-29T04:33:59;61350.25;;;11.01;62.18
64610;BME280;51019;46.090;6.350;2024-03-29T04:36:29;61387.88;;;11.39;61.87
64610;BME280;51019;46.090;6.350;2024-03-29T04:38:55;61407.19;;;11.57;57.75
64610;BME280;51019;46.090;6.350;2024-03-29T04:41:24;61387.25;;;11.36;55.32
64610;BME280;51019;46.090;6.350;2024-03-29T04:43:51;61424.38;;;11.74;52.46
64610;BME280;51019;46.090;6.350;2024-03-29T04:46:18;61451.22;;;11.99;52.69
64610;BME280;51019;46.090;6.350;2024-03-29T04:48:46;61470.56;;;12.17;51.09
64610;BME280;51019;46.090;6.350;2024-03-29T04:51:13;61491.41;;;12.34;50.70
64610;BME280;51019;46.090;6.350;2024-03-29T04:53:40;61476.91;;;12.21;51.62
64610;BME280;51019;46.090;6.350;2024-03-29T04:56:08;61468.88;;;12.13;53.77
64610;BME280;51019;46.090;6.350;2024-03-29T04:58:37;61495.19;;;12.38;54.43
64610;BME280;51019;46.090;6.350;2024-03-29T05:01:04;61478.53;;;12.22;54.84
64610;BME280;51019;46.090;6.350;2024-03-29T05:03:32;61396.84;;;11.43;54.39
64610;BME280;51019;46.090;6.350;2024-03-29T05:06:00;61502.25;;;12.47;51.80
64610;BME280;51019;46.090;6.350;2024-03-29T05:08:29;61526.25;;;12.65;49.89
64610;BME280;51019;46.090;6.350;2024-03-29T05:10:55;61454.44;;;12.02;54.04
64610;BME280;51019;46.090;6.350;2024-03-29T05:13:22;61449.53;;;11.95;55.61
64610;BME280;51019;46.090;6.350;2024-03-29T05:15:51;61487.09;;;12.30;52.99
64610;BME280;51019;46.090;6.350;2024-03-29T05:18:18;61491.50;;;12.37;51.30
64610;BME280;51019;46.090;6.350;2024-03-29T05:20:45;61499.00;;;12.44;49.33
64610;BME280;51019;46.090;6.350;2024-03-29T05:23:16;61580.09;;;13.18;47.35
64610;BME280;51019;46.090;6.350;2024-03-29T05:25:48;61581.16;;;13.19;47.85
64610;BME280;51019;46.090;6.350;2024-03-29T05:28:17;61523.72;;;12.67;49.11
64610;BME280;51019;46.090;6.350;2024-03-29T05:30:44;61573.72;;;13.15;47.97
64610;BME280;51019;46.090;6.350;2024-03-29T05:33:13;61522.09;;;12.66;47.91
64610;BME280;51019;46.090;6.350;2024-03-29T05:35:41;61520.44;;;12.62;49.21
64610;BME280;51019;46.090;6.350;2024-03-29T05:38:08;61570.84;;;13.07;49.36
64610;BME280;51019;46.090;6.350;2024-03-29T05:40:35;61552.13;;;12.92;48.35
64610;BME280;51019;46.090;6.350;2024-03-29T05:43:03;61571.44;;;13.10;48.61
64610;BME280;51019;46.090;6.350;2024-03-29T05:45:31;61583.84;;;13.22;50.73
64610;BME280;51019;46.090;6.350;2024-03-29T05:47:58;61561.31;;;13.03;53.63
64610;BME280;51019;46.090;6.350;2024-03-29T05:50:27;61572.53;;;13.11;53.45
64610;BME280;51019;46.090;6.350;2024-03-29T05:52:55;61487.72;;;12.33;55.20
64610;BME280;51019;46.090;6.350;2024-03-29T05:55:25;61464.09;;;12.11;54.21
64610;BME280;51019;46.090;6.350;2024-03-29T05:57:52;61539.22;;;12.80;54.32
64610;BME280;51019;46.090;6.350;2024-03-29T06:00:19;61564.47;;;13.03;55.31
64610;BME280;51019;46.090;6.350;2024-03-29T06:02:47;61516.75;;;12.61;59.39
64610;BME280;51019;46.090;6.350;2024-03-29T06:05:14;61527.94;;;12.69;55.24
64610;BME280;51019;46.090;6.350;2024-03-29T06:07:43;61530.09;;;12.71;56.41
64610;BME280;51019;46.090;6.350;2024-03-29T06:10:10;61532.84;;;12.76;55.67
64610;BME280;51019;46.090;6.350;2024-03-29T06:12:37;61465.56;;;12.08;56.76
64610;BME280;51019;46.090;6.350;2024-03-29T06:15:06;61524.72;;;12.66;59.31
64610;BME280;51019;46.090;6.350;2024-03-29T06:17:50;61516.13;;;12.58;61.62
64610;BME280;51019;46.090;6.350;2024-03-29T06:20:17;61540.38;;;12.83;60.11
64610;BME280;51019;46.090;6.350;2024-03-29T06:22:46;61431.91;;;11.81;59.12
64610;BME280;51019;46.090;6.350;2024-03-29T06:25:14;61522.50;;;12.61;59.04
64610;BME280;51019;46.090;6.350;2024-03-29T06:27:41;61514.97;;;12.54;58.72
64610;BME280;51019;46.090;6.350;2024-03-29T06:30:14;61566.09;;;13.05;56.45
64610;BME280;51019;46.090;6.350;2024-03-29T06:32:42;61556.34;;;12.93;56.91
64610;BME280;51019;46.090;6.350;2024-03-29T06:35:10;61646.81;;;13.84;53.55
64610;BME280;51019;46.090;6.350;2024-03-29T06:37:37;61634.47;;;13.72;52.50
64610;BME280;51019;46.090;6.350;2024-03-29T06:40:09;61612.94;;;13.52;55.92
64610;BME280;51019;46.090;6.350;2024-03-29T06:42:36;61587.06;;;13.25;54.53
64610;BME280;51019;46.090;6.350;2024-03-29T06:45:04;61644.66;;;13.81;53.80
64610;BME280;51019;46.090;6.350;2024-03-29T06:47:32;61652.72;;;13.89;53.29
64610;BME280;51019;46.090;6.350;2024-03-29T06:50:00;61567.72;;;13.06;53.42
64610;BME280;51019;46.090;6.350;2024-03-29T06:52:28;61638.69;;;13.73;53.86
64610;BME280;51019;46.090;6.350;2024-03-29T06:54:55;61617.78;;;13.56;54.45
64610;BME280;51019;46.090;6.350;2024-03-29T06:57:43;61659.13;;;13.93;57.33
64610;BME280;51019;46.090;6.350;2024-03-29T07:00:11;61588.69;;;13.26;61.64
64610;BME280;51019;46.090;6.350;2024-03-29T07:02:39;61606.50;;;13.45;63.67
64610;BME280;51019;46.090;6.350;2024-03-29T07:05:07;61531.78;;;12.75;65.45
64610;BME280;51019;46.090;6.350;2024-03-29T07:07:36;61524.66;;;12.63;67.27
64610;BME280;51019;46.090;6.350;2024-03-29T07:10:09;61547.28;;;12.87;68.75
64610;BME280;51019;46.090;6.350;2024-03-29T07:12:38;61522.09;;;12.66;71.60
64610;BME280;51019;46.090;6.350;2024-03-29T07:15:09;61558.03;;;12.97;67.00
64610;BME280;51019;46.090;6.350;2024-03-29T07:17:38;61491.41;;;12.34;70.45
64610;BME280;51019;46.090;6.350;2024-03-29T07:20:09;61521.09;;;12.67;72.69
64610;BME280;51019;46.090;6.350;2024-03-29T07:22:37;61497.31;;;12.40;77.21
64610;BME280;51019;46.090;6.350;2024-03-29T07:25:05;61540.47;;;12.86;76.87
64610;BME280;51019;46.090;6.350;2024-03-29T07:27:32;61550.03;;;12.92;69.12
64610;BME280;51019;46.090;6.350;2024-03-29T07:30:16;61518.28;;;12.60;75.24
64610;BME280;51019;46.090;6.350;2024-03-29T07:32:45;61547.28;;;12.87;75.88
64610;BME280;51019;46.090;6.350;2024-03-29T07:35:12;61561.25;;;13.00;77.01
64610;BME280;51019;46.090;6.350;2024-03-29T07:37:42;61541.91;;;12.82;69.04
64610;BME280;51019;46.090;6.350;2024-03-29T07:40:15;61680.78;;;14.18;60.45
64610;BME280;51019;46.090;6.350;2024-03-29T07:42:42;61601.03;;;13.38;62.59
64610;BME280;51019;46.090;6.350;2024-03-29T07:45:11;61679.63;;;14.14;58.11
64610;BME280;51019;46.090;6.350;2024-03-29T07:47:39;61734.47;;;14.64;69.57
64610;BME280;51019;46.090;6.350;2024-03-29T07:50:07;61723.75;;;14.56;72.42
64610;BME280;51019;46.090;6.350;2024-03-29T07:52:35;61680.16;;;14.15;71.14
64610;BME280;51019;46.090;6.350;2024-03-29T07:55:03;61757.75;;;14.90;70.46
64610;BME280;51019;46.090;6.350;2024-03-29T07:57:30;61708.63;;;14.39;64.98
64610;BME280;51019;46.090;6.350;2024-03-29T07:59:58;61833.06;;;15.59;58.66
64610;BME280;51019;46.090;6.350;2024-03-29T08:02:27;61711.91;;;14.45;56.76
64610;BME280;51019;46.090;6.350;2024-03-29T08:04:54;61701.16;;;14.35;56.90
64610;BME280;51019;46.090;6.350;2024-03-29T08:07:21;61797.50;;;15.25;57.93
64610;BME280;51019;46.090;6.350;2024-03-29T08:09:49;61906.78;;;16.23;56.65
64610;BME280;51019;46.090;6.350;2024-03-29T08:12:16;61904.75;;;16.26;54.41
64610;BME280;51019;46.090;6.350;2024-03-29T08:14:44;61878.28;;;15.99;61.62
64610;BME280;51019;46.090;6.350;2024-03-29T08:17:12;61828.78;;;15.55;62.06
64610;BME280;51019;46.090;6.350;2024-03-29T08:19:41;61834.09;;;15.57;54.68
64610;BME280;51019;46.090;6.350;2024-03-29T08:22:08;61969.00;;;16.89;54.43
64610;BME280;51019;46.090;6.350;2024-03-29T08:24:36;61847.09;;;15.72;55.38
64610;BME280;51019;46.090;6.350;2024-03-29T08:27:03;61937.66;;;16.57;55.42
64610;BME280;51019;46.090;6.350;2024-03-29T08:29:30;61961.38;;;16.80;52.98
64610;BME280;51019;46.090;6.350;2024-03-29T08:31:58;61961.94;;;16.80;55.93
64610;BME280;51019;46.090;6.350;2024-03-29T08:34:25;61910.16;;;16.31;66.90
64610;BME280;51019;46.090;6.350;2024-03-29T08:36:55;61881.03;;;16.04;73.00
64610;BME280;51019;46.090;6.350;2024-03-29T08:39:22;61873.03;;;15.99;71.82
64610;BME280;51019;46.090;6.350;2024-03-29T08:41:50;61834.63;;;15.58;69.68
64610;BME280;51019;46.090;6.350;2024-03-29T08:44:17;61870.25;;;15.94;68.63
64610;BME280;51019;46.090;6.350;2024-03-29T08:46:45;61921.47;;;16.42;68.13
64610;BME280;51019;46.090;6.350;2024-03-29T08:49:12;61918.16;;;16.37;70.08
64610;BME280;51019;46.090;6.350;2024-03-29T08:51:39;61921.47;;;16.42;61.74
64610;BME280;51019;46.090;6.350;2024-03-29T08:54:12;61903.16;;;16.25;66.77
64610;BME280;51019;46.090;6.350;2024-03-29T08:56:39;61995.38;;;17.12;66.18
64610;BME280;51019;46.090;6.350;2024-03-29T08:59:06;61948.44;;;16.67;62.14
64610;BME280;51019;46.090;6.350;2024-03-29T09:01:36;61998.59;;;17.15;61.51
64610;BME280;51019;46.090;6.350;2024-03-29T09:04:04;61948.97;;;16.68;60.82
64610;BME280;51019;46.090;6.350;2024-03-29T09:06:33;61999.75;;;17.18;58.03
64610;BME280;51019;46.090;6.350;2024-03-29T09:09:22;61985.66;;;17.02;62.69
64610;BME280;51019;46.090;6.350;2024-03-29T09:11:49;62019.03;;;17.31;60.11
64610;BME280;51019;46.090;6.350;2024-03-29T09:14:17;62068.78;;;17.81;61.44
64610;BME280;51019;46.090;6.350;2024-03-29T09:16:44;62047.69;;;17.61;60.62
64610;BME280;51019;46.090;6.350;2024-03-29T09:19:13;62051.50;;;17.64;61.73
64610;BME280;51019;46.090;6.350;2024-03-29T09:21:40;62036.34;;;17.50;60.61
64610;BME280;51019;46.090;6.350;2024-03-29T09:24:15;62070.94;;;17.83;63.89
64610;BME280;51019;46.090;6.350;2024-03-29T09:26:44;62108.72;;;18.18;65.38
64610;BME280;51019;46.090;6.350;2024-03-29T09:29:17;62016.94;;;17.32;63.24
64610;BME280;51019;46.090;6.350;2024-03-29T09:31:50;62056.81;;;17.67;60.15
64610;BME280;51019;46.090;6.350;2024-03-29T09:34:19;62139.50;;;18.47;57.99
64610;BME280;51019;46.090;6.350;2024-03-29T09:36:48;62141.59;;;18.46;65.41
64610;BME280;51019;46.090;6.350;2024-03-29T09:39:16;62128.69;;;18.37;60.10
64610;BME280;51019;46.090;6.350;2024-03-29T09:41:45;62148.69;;;18.56;62.24
64610;BME280;51019;46.090;6.350;2024-03-29T09:44:13;62175.31;;;18.85;57.96
64610;BME280;51019;46.090;6.350;2024-03-29T09:46:43;62108.16;;;18.18;58.37
64610;BME280;51019;46.090;6.350;2024-03-29T09:49:11;62124.31;;;18.30;53.68
64610;BME280;51019;46.090;6.350;2024-03-29T09:51:42;62106.56;;;18.16;54.15
64610;BME280;51019;46.090;6.350;2024-03-29T09:54:13;62178.41;;;18.83;52.87
64610;BME280;51019;46.090;6.350;2024-03-29T09:56:41;62120.00;;;18.26;53.55
64610;BME280;51019;46.090;6.350;2024-03-29T09:59:11;62235.22;;;19.39;52.96
64610;BME280;51019;46.090;6.350;2024-03-29T10:01:38;62238.34;;;19.37;57.19
64610;BME280;51019;46.090;6.350;2024-03-29T10:04:06;62308.72;;;20.06;50.79
64610;BME280;51019;46.090;6.350;2024-03-29T10:06:34;62317.84;;;20.12;53.48
64610;BME280;51019;46.090;6.350;2024-03-29T10:09:02;62303.28;;;20.01;53.81
64610;BME280;51019;46.090;6.350;2024-03-29T10:11:30;62340.56;;;20.33;52.89
64610;BME280;51019;46.090;6.350;2024-03-29T10:13:58;62351.47;;;20.46;50.26
64610;BME280;51019;46.090;6.350;2024-03-29T10:16:29;62309.78;;;20.07;52.09
64610;BME280;51019;46.090;6.350;2024-03-29T10:18:58;62418.03;;;21.08;49.46
64610;BME280;51019;46.090;6.350;2024-03-29T10:21:25;62368.78;;;20.62;49.63
64610;BME280;51019;46.090;6.350;2024-03-29T10:23:53;62445.13;;;21.33;46.25
64610;BME280;51019;46.090;6.350;2024-03-29T10:26:21;62420.81;;;21.13;46.53
64610;BME280;51019;46.090;6.350;2024-03-29T10:28:48;62363.28;;;20.54;43.56
64610;BME280;51019;46.090;6.350;2024-03-29T10:31:17;62392.66;;;20.87;44.89
64610;BME280;51019;46.090;6.350;2024-03-29T10:33:47;62336.28;;;20.31;45.87
64610;BME280;51019;46.090;6.350;2024-03-29T10:36:14;62359.53;;;20.51;46.04
64610;BME280;51019;46.090;6.350;2024-03-29T10:38:41;62313.09;;;20.12;45.43
64610;BME280;51019;46.090;6.350;2024-03-29T10:41:09;62414.84;;;21.08;45.67
64610;BME280;51019;46.090;6.350;2024-03-29T10:43:38;62406.72;;;21.00;48.61
64610;BME280;51019;46.090;6.350;2024-03-29T10:46:09;62434.25;;;21.21;44.96
64610;BME280;51019;46.090;6.350;2024-03-29T10:48:37;62380.09;;;20.70;48.19
64610;BME280;51019;46.090;6.350;2024-03-29T10:51:10;62446.28;;;21.37;47.75
64610;BME280;51019;46.090;6.350;2024-03-29T10:53:38;62474.91;;;21.61;43.42
64610;BME280;51019;46.090;6.350;2024-03-29T10:56:07;62472.19;;;21.59;43.49
64610;BME280;51019;46.090;6.350;2024-03-29T10:58:35;62457.56;;;21.45;44.73
64610;BME280;51019;46.090;6.350;2024-03-29T11:01:05;62528.63;;;22.14;43.18
64610;BME280;51019;46.090;6.350;2024-03-29T11:03:37;62504.72;;;21.89;43.50
64610;BME280;51019;46.090;6.350;2024-03-29T11:06:06;62547.59;;;22.32;44.79
64610;BME280;51019;46.090;6.350;2024-03-29T11:08:37;62535.59;;;22.18;44.12
64610;BME280;51019;46.090;6.350;2024-03-29T11:11:12;62583.25;;;22.60;42.10
64610;BME280;51019;46.090;6.350;2024-03-29T11:13:49;62588.78;;;22.70;43.42
64610;BME280;51019;46.090;6.350;2024-03-29T11:16:22;62624.00;;;23.01;45.39
64610;BME280;51019;46.090;6.350;2024-03-29T11:18:50;62590.88;;;22.70;42.32
64610;BME280;51019;46.090;6.350;2024-03-29T11:21:18;62541.50;;;22.21;40.47
64610;BME280;51019;46.090;6.350;2024-03-29T11:23:50;62626.16;;;23.03;42.92
64610;BME280;51019;46.090;6.350;2024-03-29T11:26:18;62541.09;;;22.26;40.30
64610;BME280;51019;46.090;6.350;2024-03-29T11:28:48;62653.81;;;23.29;39.59
64610;BME280;51019;46.090;6.350;2024-03-29T11:31:16;62642.44;;;23.18;38.96
64610;BME280;51019;46.090;6.350;2024-03-29T11:33:45;62674.50;;;23.50;39.80
64610;BME280;51019;46.090;6.350;2024-03-29T11:36:18;62613.16;;;22.91;40.24
64610;BME280;51019;46.090;6.350;2024-03-29T11:38:47;62582.75;;;22.62;41.51
64610;BME280;51019;46.090;6.350;2024-03-29T11:41:20;62620.19;;;22.97;40.89
64610;BME280;51019;46.090;6.350;2024-03-29T11:43:49;62570.34;;;22.53;43.31
64610;BME280;51019;46.090;6.350;2024-03-29T11:46:18;62529.13;;;22.12;42.00
64610;BME280;51019;46.090;6.350;2024-03-29T11:48:46;62591.59;;;22.75;42.98
64610;BME280;51019;46.090;6.350;2024-03-29T11:51:18;62568.13;;;22.49;43.13
64610;BME280;51019;46.090;6.350;2024-03-29T11:53:47;62623.50;;;23.03;41.95
64610;BME280;51019;46.090;6.350;2024-03-29T11:56:18;62601.75;;;22.80;41.04
64610;BME280;51019;46.090;6.350;2024-03-29T11:58:47;62585.59;;;22.70;39.88
64610;BME280;51019;46.090;6.350;2024-03-29T12:01:15;62650.13;;;23.30;41.32
64610;BME280;51019;46.090;6.350;2024-03-29T12:03:43;62591.50;;;22.73;42.45
64610;BME280;51019;46.090;6.350;2024-03-29T12:06:12;62541.56;;;22.24;41.34
64610;BME280;51019;46.090;6.350;2024-03-29T12:08:40;62577.88;;;22.58;43.51
64610;BME280;51019;46.090;6.350;2024-03-29T12:11:08;62587.16;;;22.69;41.30
64610;BME280;51019;46.090;6.350;2024-03-29T12:13:37;62582.28;;;22.64;40.01
64610;BME280;51019;46.090;6.350;2024-03-29T12:16:07;62628.44;;;23.10;40.95
64610;BME280;51019;46.090;6.350;2024-03-29T12:18:34;62592.66;;;22.76;39.72
64610;BME280;51019;46.090;6.350;2024-03-29T12:21:02;62583.84;;;22.63;39.80
64610;BME280;51019;46.090;6.350;2024-03-29T12:23:29;62590.41;;;22.72;41.70
64610;BME280;51019;46.090;6.350;2024-03-29T12:25:57;62550.25;;;22.32;42.12
64610;BME280;51019;46.090;6.350;2024-03-29T12:28:26;62646.78;;;23.22;39.36
64610;BME280;51019;46.090;6.350;2024-03-29T12:30:55;62683.72;;;23.59;37.36
64610;BME280;51019;46.090;6.350;2024-03-29T12:33:23;62664.72;;;23.41;38.67
64610;BME280;51019;46.090;6.350;2024-03-29T12:35:51;62690.78;;;23.66;39.18
64610;BME280;51019;46.090;6.350;2024-03-29T12:38:20;62684.34;;;23.62;38.74
64610;BME280;51019;46.090;6.350;2024-03-29T12:40:50;62681.50;;;23.55;39.26
64610;BME280;51019;46.090;6.350;2024-03-29T12:43:21;62645.16;;;23.21;38.28
64610;BME280;51019;46.090;6.350;2024-03-29T12:45:50;62798.75;;;24.64;38.65
64610;BME280;51019;46.090;6.350;2024-03-29T12:48:20;62864.56;;;25.28;36.95
64610;BME280;51019;46.090;6.350;2024-03-29T12:50:48;62893.84;;;25.53;36.13
64610;BME280;51019;46.090;6.350;2024-03-29T12:53:16;62883.59;;;25.46;36.30
64610;BME280;51019;46.090;6.350;2024-03-29T12:55:44;62831.91;;;24.95;37.98
64610;BME280;51019;46.090;6.350;2024-03-29T12:58:12;62847.19;;;25.12;35.83
64610;BME280;51019;46.090;6.350;2024-03-29T13:00:41;62847.19;;;25.12;37.26
64610;BME280;51019;46.090;6.350;2024-03-29T13:03:09;62793.38;;;24.61;35.89
64610;BME280;51019;46.090;6.350;2024-03-29T13:05:38;62794.94;;;24.60;37.50